createdAt,value
2023-04-19T00:00:19.974Z,100339.75
2023-04-19T00:05:24.698Z,100345.78
2023-04-19T00:10:27.817Z,100338.03
2023-04-19T00:15:32.684Z,100331.63
2023-04-19T00:20:36.273Z,100329.19
2023-04-19T00:25:39.554Z,100325.47
2023-04-19T00:30:43.971Z,100326.03
2023-04-19T00:35:47.034Z,100318.00
2023-04-19T00:40:50.143Z,100315.41
2023-04-19T00:45:54.756Z,100316.41
2023-04-19T00:50:57.964Z,100313.69
2023-04-19T00:56:04.685Z,100307.28
2023-04-19T01:01:09.101Z,100296.31
2023-04-19T01:06:12.300Z,100297.44
2023-04-19T01:11:15.374Z,100287.56
2023-04-19T01:16:20.115Z,100288.56
2023-04-19T01:21:23.384Z,100284.00
2023-04-19T01:26:27.749Z,100281.56
2023-04-19T01:31:30.879Z,100278.00
2023-04-19T01:36:33.971Z,100273.56
2023-04-19T01:41:38.326Z,100256.97
2023-04-19T01:46:42.654Z,100258.69
2023-04-19T01:51:46.562Z,100255.38
2023-04-19T01:56:50.941Z,100251.78
2023-04-19T02:01:53.998Z,100251.97
2023-04-19T02:06:57.014Z,100241.66
2023-04-19T02:12:01.447Z,100248.22
2023-04-19T02:17:04.519Z,100244.81
2023-04-19T02:22:07.905Z,100243.09
2023-04-19T02:27:12.770Z,100242.81
2023-04-19T02:32:15.857Z,100235.41
2023-04-19T02:37:19.149Z,100227.13
2023-04-19T02:42:23.486Z,100226.03
2023-04-19T02:47:26.576Z,100229.44
2023-04-19T02:52:29.606Z,100226.88
2023-04-19T02:57:34.015Z,100232.69
2023-04-19T03:02:37.973Z,100225.72
2023-04-19T03:07:42.530Z,100227.69
2023-04-19T03:12:48.733Z,100220.41
2023-04-19T03:17:51.955Z,100223.38
2023-04-19T03:22:54.992Z,100216.22
2023-04-19T03:27:59.511Z,100208.72
2023-04-19T03:33:02.522Z,100205.13
2023-04-19T03:38:05.609Z,100198.97
2023-04-19T03:43:10.006Z,100197.13
2023-04-19T03:48:13.017Z,100197.53
2023-04-19T03:53:16.055Z,100199.41
2023-04-19T03:58:20.405Z,100189.41
2023-04-19T04:03:23.777Z,100187.09
2023-04-19T04:08:27.044Z,100197.09
2023-04-19T04:13:31.443Z,100193.53
2023-04-19T04:18:34.474Z,100196.06
2023-04-19T04:23:37.741Z,100197.91
2023-04-19T04:28:42.326Z,100198.78
2023-04-19T04:33:46.243Z,100199.31
2023-04-19T04:38:49.883Z,100201.78
2023-04-19T04:44:10.775Z,100202.75
2023-04-19T04:49:15.441Z,100199.31
2023-04-19T04:54:18.808Z,100189.94
2023-04-19T04:59:23.172Z,100201.66
2023-04-19T05:04:26.700Z,100198.94
2023-04-19T05:09:29.730Z,100202.34
2023-04-19T05:14:34.438Z,100209.13
2023-04-19T05:19:37.726Z,100196.00
2023-04-19T05:24:42.407Z,100199.78
2023-04-19T05:29:46.953Z,100207.19
2023-04-19T05:34:49.998Z,100197.38
2023-04-19T05:39:53.112Z,100198.69
2023-04-19T05:44:57.472Z,100204.09
2023-04-19T05:50:01.027Z,100198.22
2023-04-19T05:55:04.675Z,100196.03
2023-04-19T06:00:10.801Z,100208.59
2023-04-19T06:05:14.374Z,100199.44
2023-04-19T06:10:17.992Z,100199.97
2023-04-19T06:15:26.159Z,100199.97
2023-04-19T06:20:29.191Z,100200.97
2023-04-19T06:25:32.247Z,100203.47
2023-04-19T06:30:36.617Z,100203.19
2023-04-19T06:35:39.647Z,100204.06
2023-04-19T06:40:42.641Z,100210.06
2023-04-19T06:45:47.483Z,100207.19
2023-04-19T06:50:50.562Z,100214.44
2023-04-19T06:55:59.532Z,100206.84
2023-04-19T07:01:04.391Z,100196.88
2023-04-19T07:06:07.955Z,100198.06
2023-04-19T07:11:11.213Z,100192.34
2023-04-19T07:16:15.693Z,100184.34
2023-04-19T07:21:19.228Z,100184.06
2023-04-19T07:26:22.319Z,100176.88
2023-04-19T07:31:26.956Z,100193.66
2023-04-19T07:36:31.419Z,100178.72
2023-04-19T07:41:36.086Z,100170.81
2023-04-19T07:46:43.903Z,100167.72
2023-04-19T07:51:46.959Z,100167.63
2023-04-19T07:56:50.110Z,100165.47
2023-04-19T08:01:54.546Z,100162.25
2023-04-19T08:06:58.156Z,100177.81
2023-04-19T08:12:01.286Z,100171.34
2023-04-19T08:17:24.136Z,100171.63
2023-04-19T08:22:28.779Z,100177.31
2023-04-19T08:27:31.976Z,100185.41
2023-04-19T08:32:36.371Z,100168.78
2023-04-19T08:37:39.404Z,100174.03
2023-04-19T08:42:42.863Z,100170.94
2023-04-19T08:47:59.972Z,100180.53
2023-04-19T08:53:21.113Z,100171.81
2023-04-19T08:58:41.313Z,100172.94
2023-04-19T09:04:02.569Z,100166.78
2023-04-19T09:14:24.658Z,100161.81
2023-04-19T09:19:46.911Z,100170.03
2023-04-19T09:29:57.510Z,100154.59
2023-04-19T09:35:01.866Z,100152.63
2023-04-19T09:40:23.427Z,100153.53
2023-04-19T09:45:30.868Z,100144.00
2023-04-19T09:50:46.880Z,100151.50
2023-04-19T09:56:02.260Z,100133.66
2023-04-19T10:01:15.136Z,100132.94
2023-04-19T10:11:33.737Z,100117.41
2023-04-19T10:16:38.896Z,100121.13
2023-04-19T10:21:46.412Z,100123.69
2023-04-19T10:27:12.218Z,100118.97
2023-04-19T10:32:16.261Z,100122.09
2023-04-19T10:37:23.750Z,100105.19
2023-04-19T10:42:44.354Z,100098.94
2023-04-19T10:47:47.505Z,100085.25
2023-04-19T10:52:51.975Z,100083.75
2023-04-19T10:58:06.173Z,100072.66
2023-04-19T11:03:46.973Z,100055.13
2023-04-19T11:08:52.153Z,100067.06
2023-04-19T11:13:57.858Z,100071.69
2023-04-19T11:19:01.180Z,100066.56
2023-04-19T11:24:09.058Z,100052.72
2023-04-19T11:29:12.279Z,100021.31
2023-04-19T11:34:16.127Z,100031.78
2023-04-19T11:39:21.393Z,100032.31
2023-04-19T11:44:24.548Z,100014.97
2023-04-19T11:49:29.142Z,100009.75
2023-04-19T11:54:33.888Z,100018.16
2023-04-19T11:59:37.899Z,100009.47
2023-04-19T12:04:42.034Z,99994.06
2023-04-19T12:09:49.864Z,99993.59
2023-04-19T12:14:53.561Z,99991.00
2023-04-19T12:19:56.605Z,99986.31
2023-04-19T12:25:00.938Z,99979.41
2023-04-19T12:30:04.525Z,99978.78
2023-04-19T12:35:08.626Z,99970.34
2023-04-19T12:40:14.791Z,99965.78
2023-04-19T12:45:19.277Z,99963.00
2023-04-19T12:50:22.399Z,99961.28
2023-04-19T12:55:26.832Z,99941.09
2023-04-19T13:00:30.179Z,99947.31
2023-04-19T13:05:33.263Z,99945.00
2023-04-19T13:10:37.613Z,99940.44
2023-04-19T13:15:41.837Z,99943.06
2023-04-19T13:20:44.853Z,99946.03
2023-04-19T13:25:49.199Z,99933.84
2023-04-19T13:30:52.819Z,99926.66
2023-04-19T13:35:55.876Z,99934.22
2023-04-19T13:41:00.327Z,99927.59
2023-04-19T13:46:03.348Z,99923.56
2023-04-19T13:51:07.647Z,99914.44
2023-04-19T13:56:12.021Z,99907.75
2023-04-19T14:01:15.157Z,99905.28
2023-04-19T14:06:18.224Z,99894.88
2023-04-19T14:11:23.737Z,99901.84
2023-04-19T14:16:26.882Z,99879.88
2023-04-19T14:21:31.646Z,99870.75
2023-04-19T14:26:36.056Z,99875.91
2023-04-19T14:31:39.119Z,99862.94
2023-04-19T14:36:42.170Z,99843.16
2023-04-19T14:41:46.511Z,99862.28
2023-04-19T14:46:49.493Z,99848.66
2023-04-19T14:51:52.873Z,99841.38
2023-04-19T14:56:57.257Z,99840.91
2023-04-19T15:02:00.329Z,99839.56
2023-04-19T15:07:03.948Z,99834.66
2023-04-19T15:12:08.477Z,99844.91
2023-04-19T15:17:11.488Z,99834.28
2023-04-19T15:22:14.991Z,99833.38
2023-04-19T15:27:19.673Z,99833.94
2023-04-19T15:32:22.901Z,99830.97
2023-04-19T15:37:28.470Z,99827.63
2023-04-19T15:42:33.003Z,99829.16
2023-04-19T15:47:36.480Z,99839.00
2023-04-19T15:52:39.958Z,99846.38
2023-04-19T15:57:45.522Z,99838.69
2023-04-19T16:02:49.280Z,99834.69
2023-04-19T16:08:02.604Z,99826.84
2023-04-19T16:13:07.505Z,99852.13
2023-04-19T16:18:11.177Z,99833.38
2023-04-19T16:23:14.544Z,99828.97
2023-04-19T16:28:19.775Z,99828.63
2023-04-19T16:33:22.871Z,99851.50
2023-04-19T16:38:26.015Z,99839.69
2023-04-19T16:43:30.388Z,99836.78
2023-04-19T16:48:33.743Z,99837.66
2023-04-19T16:53:36.808Z,99846.34
2023-04-19T16:58:41.217Z,99840.66
2023-04-19T17:03:45.768Z,99837.41
2023-04-19T17:08:49.023Z,99834.56
2023-04-19T17:13:55.284Z,99838.75
2023-04-19T17:18:59.700Z,99832.22
2023-04-19T17:24:02.707Z,99835.97
2023-04-19T17:29:07.152Z,99831.19
2023-04-19T17:34:10.192Z,99838.25
2023-04-19T17:39:13.206Z,99839.56
2023-04-19T17:44:17.660Z,99835.78
2023-04-19T17:49:21.678Z,99826.63
2023-04-19T17:54:25.076Z,99837.28
2023-04-19T17:59:29.800Z,99833.47
2023-04-19T18:04:32.895Z,99839.06
2023-04-19T18:09:35.975Z,99836.03
2023-04-19T18:14:40.305Z,99830.09
2023-04-19T18:19:43.354Z,99832.69
2023-04-19T18:24:47.333Z,99828.41
2023-04-19T18:29:52.974Z,99828.91
2023-04-19T18:34:56.046Z,99835.28
2023-04-19T18:39:59.058Z,99831.31
2023-04-19T18:45:04.182Z,99831.16
2023-04-19T18:50:08.933Z,99844.44
2023-04-19T18:55:13.694Z,99842.72
2023-04-19T19:00:19.881Z,99843.84
2023-04-19T19:05:23.112Z,99849.09
2023-04-19T19:10:48.542Z,99844.66
2023-04-19T19:15:50.716Z,99843.88
2023-04-19T19:20:58.119Z,99851.19
2023-04-19T19:26:01.751Z,99855.59
2023-04-19T19:31:06.759Z,99844.81
2023-04-19T19:36:10.262Z,99846.00
2023-04-19T19:46:22.792Z,99848.22
2023-04-19T19:56:53.827Z,99852.84
2023-04-19T20:02:03.800Z,99852.59
2023-04-19T20:07:32.476Z,99853.09
2023-04-19T20:12:29.945Z,99847.00
2023-04-19T20:17:34.356Z,99830.91
2023-04-19T20:22:37.720Z,99841.13
2023-04-19T20:27:41.022Z,99836.72
2023-04-19T20:32:45.713Z,99835.78
2023-04-19T20:37:48.830Z,99833.13
2023-04-19T20:42:51.972Z,99833.38
2023-04-19T20:47:59.691Z,99832.19
2023-04-19T20:53:02.765Z,99826.97
2023-04-19T20:58:05.954Z,99827.41
2023-04-19T21:03:10.588Z,99820.94
2023-04-19T21:08:16.017Z,99815.72
2023-04-19T21:13:19.061Z,99802.97
2023-04-19T21:18:24.522Z,99803.47
2023-04-19T21:23:28.366Z,99806.69
2023-04-19T21:28:31.738Z,99801.28
2023-04-19T21:33:36.551Z,99791.28
2023-04-19T21:38:39.619Z,99794.25
2023-04-19T21:43:42.637Z,99791.31
2023-04-19T21:48:46.981Z,99786.28
2023-04-19T21:53:50.381Z,99784.19
2023-04-19T21:58:53.380Z,99780.25
2023-04-19T22:03:58.600Z,99774.84
2023-04-19T22:09:02.981Z,99780.00
2023-04-19T22:14:06.676Z,99771.91
2023-04-19T22:19:11.423Z,99763.81
2023-04-19T22:24:14.826Z,99768.56
2023-04-19T22:29:18.517Z,99755.25
2023-04-19T22:34:23.095Z,99752.66
2023-04-19T22:39:26.816Z,99736.25
2023-04-19T22:44:29.919Z,99737.38
2023-04-19T22:49:35.112Z,99733.69
2023-04-19T22:54:38.166Z,99733.66
2023-04-19T22:59:41.799Z,99726.34
2023-04-19T23:04:48.447Z,99718.97
2023-04-19T23:09:51.700Z,99719.00
2023-04-19T23:14:55.154Z,99708.22
2023-04-19T23:19:59.885Z,99706.13
2023-04-19T23:25:02.920Z,99699.16
2023-04-19T23:30:08.269Z,99691.69
2023-04-19T23:35:12.754Z,99686.56
2023-04-19T23:40:15.794Z,99686.28
2023-04-19T23:45:18.934Z,99683.59
2023-04-19T23:50:23.429Z,99671.09
2023-04-19T23:55:26.503Z,99670.66
